Time;durP1;ratioP1;P1;durP2;ratioP2;P2;SDS_P1;SDS_P2;PMS_P1;PMS_P2;Temp;Humidity;BMP_temperature;BMP_pressure;BME280_temperature;BME280_humidity;BME280_pressure;Samples;Min_cycle;Max_cycle;Signal;HPM_P1;HPM_P2
2022/07/31 00:00:24;;;;;;;;;;;;;;;25.04;33.36;100713.41;5095188;28;19916;-67
2022/07/31 00:02:50;;;;;;;;;;;;;;;25.03;33.57;100717.25;5095188;28;19916;-67
2022/07/31 00:05:15;;;;;;;;;;;;;;;25.03;33.40;100717.25;5095461;28;19916;-67
2022/07/31 00:07:40;;;;;;;;;;;;;;;25.03;33.32;100722.72;5095042;28;19916;-67
2022/07/31 00:10:06;;;;;;;;;;;;;;;25.03;33.16;100728.19;5095021;28;20425;-67
2022/07/31 00:12:31;;;;;;;;;;;;;;;25.01;33.49;100719.41;5095255;28;19961;-67
2022/07/31 00:14:56;;;;;;;;;;;;;;;25.02;33.33;100721.06;5094834;28;19917;-67
2022/07/31 00:17:22;;;;;;;;;;;;;;;25.04;33.47;100724.34;5095475;28;19963;-67
2022/07/31 00:19:47;;;;;;;;;;;;;;;25.04;33.28;100718.88;5095088;28;19920;-67
2022/07/31 00:22:12;;;;;;;;;;;;;;;25.03;33.55;100720.78;5094646;28;19924;-66
2022/07/31 00:24:38;;;;;;;;;;;;;;;25.03;33.14;100726.28;5095008;28;19916;-66
2022/07/31 00:27:03;;;;;;;;;;;;;;;25.04;33.46;100727.06;5094696;28;19920;-66
2022/07/31 00:29:29;;;;;;;;;;;;;;;25.04;33.52;100730.66;5083472;28;20418;-66
2022/07/31 00:31:55;;;;;;;;;;;;;;;25.02;33.46;100732.81;5074271;28;20007;-66
2022/07/31 00:34:21;;;;;;;;;;;;;;;25.03;33.43;100733.66;5074452;28;19939;-66
2022/07/31 00:36:46;;;;;;;;;;;;;;;25.01;33.22;100733.09;5074356;28;20362;-66
2022/07/31 00:39:11;;;;;;;;;;;;;;;25.01;33.42;100730.34;5074561;28;20322;-66
2022/07/31 00:41:37;;;;;;;;;;;;;;;25.01;33.14;100736.66;5074241;28;19921;-66
2022/07/31 00:44:02;;;;;;;;;;;;;;;25.02;33.14;100740.22;5074458;28;19925;-66
2022/07/31 00:46:28;;;;;;;;;;;;;;;25.03;33.06;100739.13;5074233;28;19916;-66
2022/07/31 00:48:53;;;;;;;;;;;;;;;25.02;33.20;100743.75;5073084;28;19921;-66
2022/07/31 00:51:18;;;;;;;;;;;;;;;25.02;32.86;100737.47;5074093;28;20359;-66
2022/07/31 00:53:43;;;;;;;;;;;;;;;25.02;33.00;100738.28;5074405;28;19954;-66
2022/07/31 00:56:09;;;;;;;;;;;;;;;25.02;32.86;100735.56;5073922;28;20326;-66
2022/07/31 00:58:34;;;;;;;;;;;;;;;25.02;32.72;100732.81;5073522;28;19920;-66
2022/07/31 01:00:59;;;;;;;;;;;;;;;25.01;32.83;100742.13;5074399;28;19920;-66
2022/07/31 01:03:24;;;;;;;;;;;;;;;25.01;32.67;100744.03;5073985;28;20260;-66
2022/07/31 01:05:50;;;;;;;;;;;;;;;25.01;32.79;100739.41;5074467;28;19922;-66
2022/07/31 01:08:15;;;;;;;;;;;;;;;25.03;32.81;100739.94;5074421;28;20278;-66
2022/07/31 01:10:47;;;;;;;;;;;;;;;25.01;32.70;100735.81;5074176;28;19997;-66
2022/07/31 01:13:14;;;;;;;;;;;;;;;25.00;32.73;100734.22;5072971;28;19928;-66
2022/07/31 01:15:39;;;;;;;;;;;;;;;25.02;32.76;100737.47;5073900;28;19959;-66
2022/07/31 01:18:05;;;;;;;;;;;;;;;25.02;32.72;100734.75;5074007;28;20337;-66
2022/07/31 01:20:30;;;;;;;;;;;;;;;25.02;32.82;100732.00;5073715;28;19916;-66
2022/07/31 01:23:02;;;;;;;;;;;;;;;25.03;32.63;100734.47;5073960;28;19923;-66
2022/07/31 01:25:27;;;;;;;;;;;;;;;25.02;32.90;100732.81;5072185;28;20320;-66
2022/07/31 01:28:05;;;;;;;;;;;;;;;25.02;32.83;100732.81;5073808;28;19916;-66
2022/07/31 01:30:49;;;;;;;;;;;;;;;25.01;32.73;100733.94;5092402;28;19920;-66
2022/07/31 01:33:17;;;;;;;;;;;;;;;24.98;32.43;100726.28;5093894;28;19916;-66
2022/07/31 01:35:43;;;;;;;;;;;;;;;24.98;32.35;100728.19;5092454;28;19920;-66
2022/07/31 01:38:10;;;;;;;;;;;;;;;24.99;32.47;100727.09;5094014;28;20304;-66
2022/07/31 01:40:45;;;;;;;;;;;;;;;24.99;32.37;100727.09;5092464;28;20416;-66
2022/07/31 01:43:15;;;;;;;;;;;;;;;24.99;32.28;100727.09;5093932;28;19916;-66
2022/07/31 01:45:41;;;;;;;;;;;;;;;24.99;32.15;100727.94;5092331;28;19923;-67
2022/07/31 01:48:07;;;;;;;;;;;;;;;25.01;32.32;100735.81;5093533;28;19916;-67
2022/07/31 01:50:32;;;;;;;;;;;;;;;24.99;32.34;100738.03;5092516;28;19927;-67
2022/07/31 01:52:58;;;;;;;;;;;;;;;24.99;32.11;100729.81;5092312;28;19924;-67
2022/07/31 01:55:24;;;;;;;;;;;;;;;24.98;32.18;100729.00;5092366;28;20015;-66
2022/07/31 01:57:50;;;;;;;;;;;;;;;24.99;32.17;100727.09;5092207;28;19971;-66
2022/07/31 02:00:17;;;;;;;;;;;;;;;24.99;32.02;100729.81;5093643;28;19924;-66
2022/07/31 02:02:42;;;;;;;;;;;;;;;24.97;31.88;100723.81;5093752;28;19920;-66
2022/07/31 02:05:09;;;;;;;;;;;;;;;24.98;32.13;100720.00;5092024;28;20006;-66
2022/07/31 02:07:35;;;;;;;;;;;;;;;24.99;31.77;100721.63;5093474;28;19916;-66
2022/07/31 02:10:00;;;;;;;;;;;;;;;24.98;31.97;100720.00;5094310;28;19985;-66
2022/07/31 02:12:26;;;;;;;;;;;;;;;24.99;32.10;100721.63;5097598;28;20366;-67
2022/07/31 02:14:51;;;;;;;;;;;;;;;24.98;31.75;100720.00;5097105;28;19916;-67
2022/07/31 02:17:16;;;;;;;;;;;;;;;24.97;31.73;100719.16;5096298;28;20358;-67
2022/07/31 02:19:42;;;;;;;;;;;;;;;24.98;32.03;100709.88;5095926;28;19928;-67
2022/07/31 02:22:07;;;;;;;;;;;;;;;24.99;32.08;100713.41;5097317;28;19916;-67
2022/07/31 02:24:32;;;;;;;;;;;;;;;24.98;31.97;100712.59;5096976;28;19920;-67
2022/07/31 02:26:58;;;;;;;;;;;;;;;24.97;31.78;100718.34;5097016;28;19967;-67
2022/07/31 02:29:23;;;;;;;;;;;;;;;24.98;31.94;100714.53;5088937;28;19916;-66
2022/07/31 02:31:49;;;;;;;;;;;;;;;24.98;32.11;100720.81;5077253;28;19924;-66
2022/07/31 02:34:14;;;;;;;;;;;;;;;24.98;31.90;100717.25;5076583;28;19916;-66
2022/07/31 02:36:39;;;;;;;;;;;;;;;24.97;32.15;100710.16;5076508;28;19916;-66
2022/07/31 02:39:04;;;;;;;;;;;;;;;24.99;32.17;100710.69;5075514;28;19924;-66
2022/07/31 02:41:30;;;;;;;;;;;;;;;24.99;32.00;100710.69;5075241;28;19920;-66
2022/07/31 02:43:55;;;;;;;;;;;;;;;24.98;32.09;100712.59;5076724;28;20337;-66
2022/07/31 02:46:20;;;;;;;;;;;;;;;24.98;32.14;100720.81;5075074;28;19916;-66
2022/07/31 02:48:46;;;;;;;;;;;;;;;24.98;32.16;100720.81;5076186;28;19959;-66
2022/07/31 02:51:11;;;;;;;;;;;;;;;24.98;32.00;100714.53;5076211;28;19935;-66
2022/07/31 02:53:36;;;;;;;;;;;;;;;24.99;32.17;100716.16;5075168;28;19916;-66
2022/07/31 02:56:03;;;;;;;;;;;;;;;24.99;32.20;100721.63;5076091;28;20347;-66
2022/07/31 02:58:28;;;;;;;;;;;;;;;24.98;32.14;100720.81;5076338;28;19916;-66
2022/07/31 03:00:57;;;;;;;;;;;;;;;24.99;32.15;100721.63;5076434;28;19920;-67
2022/07/31 03:03:22;;;;;;;;;;;;;;;24.98;32.15;100725.47;5075986;28;20063;-67
2022/07/31 03:05:48;;;;;;;;;;;;;;;24.97;32.09;100723.81;5076302;28;20049;-67
2022/07/31 03:08:13;;;;;;;;;;;;;;;24.99;32.21;100722.47;5076135;28;19923;-67
2022/07/31 03:10:38;;;;;;;;;;;;;;;24.99;32.23;100716.16;5076133;28;20006;-67
2022/07/31 03:13:03;;;;;;;;;;;;;;;24.98;32.21;100709.88;5076051;28;19917;-67
2022/07/31 03:15:29;;;;;;;;;;;;;;;24.98;32.21;100709.06;5074421;28;20366;-67
2022/07/31 03:17:54;;;;;;;;;;;;;;;24.99;32.33;100710.69;5075696;28;19924;-67
2022/07/31 03:20:19;;;;;;;;;;;;;;;25.00;32.42;100712.34;5076082;28;20004;-67
2022/07/31 03:22:45;;;;;;;;;;;;;;;24.98;32.49;100703.59;5075839;28;19964;-67
2022/07/31 03:25:10;;;;;;;;;;;;;;;24.98;32.47;100701.66;5075605;28;19923;-67
2022/07/31 03:27:35;;;;;;;;;;;;;;;24.99;32.71;100700.59;5075530;28;19913;-67
2022/07/31 03:30:01;;;;;;;;;;;;;;;25.00;32.77;100702.22;5087965;28;19924;-67
2022/07/31 03:32:26;;;;;;;;;;;;;;;24.98;32.67;100703.59;5095739;28;19920;-67
2022/07/31 03:34:52;;;;;;;;;;;;;;;25.00;32.61;100695.94;5096043;28;19950;-67
2022/07/31 03:37:17;;;;;;;;;;;;;;;25.00;32.73;100702.22;5095651;28;20358;-67
2022/07/31 03:39:42;;;;;;;;;;;;;;;25.01;33.03;100703.00;5095963;28;19920;-67
2022/07/31 03:42:08;;;;;;;;;;;;;;;24.99;32.82;100699.75;5095804;28;20264;-67
2022/07/31 03:44:33;;;;;;;;;;;;;;;24.98;33.08;100701.66;5094257;28;19999;-67
2022/07/31 03:46:58;;;;;;;;;;;;;;;25.01;33.21;100697.56;5095749;28;19962;-67
2022/07/31 03:49:24;;;;;;;;;;;;;;;25.00;32.99;100704.13;5094419;28;20354;-67
2022/07/31 03:51:49;;;;;;;;;;;;;;;25.00;33.08;100695.94;5095342;28;19917;-67
2022/07/31 03:54:14;;;;;;;;;;;;;;;24.97;33.10;100697.28;5095630;28;19920;-67
2022/07/31 03:56:39;;;;;;;;;;;;;;;24.98;33.31;100706.31;5095527;28;20320;-67
2022/07/31 03:59:05;;;;;;;;;;;;;;;24.97;33.41;100705.50;5094630;28;19944;-67
2022/07/31 04:01:30;;;;;;;;;;;;;;;24.98;33.25;100695.38;5095163;28;20259;-67
2022/07/31 04:03:58;;;;;;;;;;;;;;;24.99;33.22;100699.75;5095222;28;19916;-67
2022/07/31 04:06:23;;;;;;;;;;;;;;;25.00;33.29;100701.41;5095454;28;19920;-67
2022/07/31 04:08:49;;;;;;;;;;;;;;;25.00;33.42;100704.13;5095047;28;20393;-67
2022/07/31 04:11:14;;;;;;;;;;;;;;;24.99;33.15;100705.22;5095333;28;19962;-67
2022/07/31 04:13:39;;;;;;;;;;;;;;;24.99;33.41;100694.28;5094381;28;19916;-67
2022/07/31 04:16:05;;;;;;;;;;;;;;;24.97;33.30;100697.28;5095507;28;19982;-67
2022/07/31 04:18:30;;;;;;;;;;;;;;;24.99;33.37;100699.75;5095614;28;20398;-67
2022/07/31 04:20:55;;;;;;;;;;;;;;;25.00;33.75;100707.69;5095145;28;20434;-67
2022/07/31 04:23:20;;;;;;;;;;;;;;;24.99;33.75;100699.75;5095452;28;19916;-67
2022/07/31 04:25:46;;;;;;;;;;;;;;;24.98;33.84;100707.13;5094828;28;20012;-67
2022/07/31 04:28:11;;;;;;;;;;;;;;;24.97;33.93;100713.69;5095623;28;20007;-67
2022/07/31 04:30:37;;;;;;;;;;;;;;;24.99;34.19;100706.06;5079096;28;20363;-66
2022/07/31 04:33:02;;;;;;;;;;;;;;;25.00;33.94;100712.34;5074578;28;19916;-66
2022/07/31 04:35:28;;;;;;;;;;;;;;;25.00;34.07;100715.06;5075552;28;19951;-66
2022/07/31 04:37:53;;;;;;;;;;;;;;;25.00;34.32;100717.81;5075589;28;19916;-66
2022/07/31 04:40:18;;;;;;;;;;;;;;;25.00;34.44;100718.59;5074934;28;19940;-66
2022/07/31 04:42:44;;;;;;;;;;;;;;;25.02;34.53;100718.34;5075084;28;19954;-66
2022/07/31 04:45:09;;;;;;;;;;;;;;;25.01;34.41;100719.41;5075618;28;19963;-66
2022/07/31 04:47:35;;;;;;;;;;;;;;;25.01;34.48;100730.34;5074664;28;20273;-66
2022/07/31 04:50:19;;;;;;;;;;;;;;;25.01;34.68;100724.88;5072470;28;19917;-66
2022/07/31 04:52:45;;;;;;;;;;;;;;;25.02;34.55;100729.28;5072106;28;20397;-66
2022/07/31 04:55:10;;;;;;;;;;;;;;;25.01;34.58;100724.88;5071725;28;19917;-66
2022/07/31 04:57:35;;;;;;;;;;;;;;;25.01;34.70;100724.88;5071795;28;19955;-66
2022/07/31 05:00:00;;;;;;;;;;;;;;;24.98;34.70;100720.00;5071899;28;19970;-66
2022/07/31 05:02:26;;;;;;;;;;;;;;;24.98;34.75;100715.34;5071912;28;19932;-66
2022/07/31 05:04:51;;;;;;;;;;;;;;;25.03;34.94;100717.25;5071854;28;20009;-66
2022/07/31 05:07:16;;;;;;;;;;;;;;;24.99;34.84;100716.16;5071828;28;19916;-66
2022/07/31 05:09:41;;;;;;;;;;;;;;;24.96;34.87;100720.28;5071648;28;20504;-66
2022/07/31 05:12:07;;;;;;;;;;;;;;;25.00;34.78;100720.53;5071657;28;19920;-66
2022/07/31 05:14:32;;;;;;;;;;;;;;;25.01;34.94;100731.19;5071721;28;19956;-67
2022/07/31 05:16:57;;;;;;;;;;;;;;;24.99;35.00;100721.63;5071655;28;20014;-67
2022/07/31 05:19:28;;;;;;;;;;;;;;;25.01;34.93;100724.88;5071768;28;19920;-66
2022/07/31 05:21:53;;;;;;;;;;;;;;;24.98;35.32;100720.00;5073324;28;19959;-66
2022/07/31 05:24:19;;;;;;;;;;;;;;;24.98;35.24;100717.25;5073849;28;19970;-67
2022/07/31 05:26:44;;;;;;;;;;;;;;;24.97;35.21;100716.41;5073413;28;19920;-67
2022/07/31 05:29:09;;;;;;;;;;;;;;;25.02;35.25;100723.81;5076453;28;20285;-67
2022/07/31 05:31:35;;;;;;;;;;;;;;;24.99;35.23;100727.09;5094052;28;20255;-67
2022/07/31 05:34:00;;;;;;;;;;;;;;;24.99;35.47;100722.47;5093915;28;19916;-67
2022/07/31 05:36:26;;;;;;;;;;;;;;;24.99;35.32;100722.47;5093924;28;20308;-67
2022/07/31 05:38:51;;;;;;;;;;;;;;;25.01;35.49;100727.63;5093944;28;19916;-67
2022/07/31 05:41:16;;;;;;;;;;;;;;;24.97;35.52;100721.09;5093591;28;19966;-67
2022/07/31 05:43:42;;;;;;;;;;;;;;;24.97;35.55;100723.81;5094094;28;20455;-67
2022/07/31 05:46:07;;;;;;;;;;;;;;;25.01;35.58;100716.69;5098088;28;19923;-67
2022/07/31 05:48:32;;;;;;;;;;;;;;;25.00;35.33;100729.53;5097584;28;19951;-67
2022/07/31 05:50:58;;;;;;;;;;;;;;;24.95;35.65;100724.09;5098021;28;20033;-67
2022/07/31 05:53:23;;;;;;;;;;;;;;;24.94;35.59;100717.00;5098503;28;20305;-68
2022/07/31 05:55:48;;;;;;;;;;;;;;;24.92;35.74;100720.00;5097827;28;19916;-67
2022/07/31 05:58:14;;;;;;;;;;;;;;;24.96;35.53;100719.44;5097926;28;19916;-67
2022/07/31 06:00:39;;;;;;;;;;;;;;;24.97;35.63;100719.16;5097940;28;20425;-67
2022/07/31 06:03:05;;;;;;;;;;;;;;;24.93;35.65;100723.53;5097708;28;20386;-67
2022/07/31 06:05:30;;;;;;;;;;;;;;;24.98;35.67;100717.25;5097417;28;19920;-67
2022/07/31 06:07:56;;;;;;;;;;;;;;;24.92;35.66;100711.81;5097651;28;20007;-67
2022/07/31 06:10:21;;;;;;;;;;;;;;;24.97;35.30;100718.34;5097626;28;20347;-67
2022/07/31 06:12:47;;;;;;;;;;;;;;;24.96;35.51;100717.53;5097737;28;20277;-67
2022/07/31 06:15:12;;;;;;;;;;;;;;;24.94;35.20;100711.53;5097176;28;19916;-67
2022/07/31 06:17:38;;;;;;;;;;;;;;;24.96;35.26;100711.22;5097765;28;19917;-67
2022/07/31 06:20:03;;;;;;;;;;;;;;;25.02;35.04;100710.13;5097085;28;19965;-67
2022/07/31 06:22:29;;;;;;;;;;;;;;;24.99;35.38;100705.22;5097032;28;19960;-67
2022/07/31 06:24:55;;;;;;;;;;;;;;;25.01;34.98;100713.94;5097335;28;19917;-67
2022/07/31 06:27:21;;;;;;;;;;;;;;;24.89;34.87;100706.06;5096837;28;20384;-67
2022/07/31 06:29:46;;;;;;;;;;;;;;;25.00;34.99;100712.34;5090292;28;19917;-67
2022/07/31 06:32:11;;;;;;;;;;;;;;;25.01;34.56;100708.47;5077073;28;19917;-67
2022/07/31 06:34:36;;;;;;;;;;;;;;;25.00;34.67;100701.41;5076728;28;19958;-67
2022/07/31 06:37:02;;;;;;;;;;;;;;;24.99;34.41;100697.00;5076776;28;19917;-66
2022/07/31 06:39:27;;;;;;;;;;;;;;;24.99;34.46;100694.28;5076791;28;19916;-68
2022/07/31 06:41:52;;;;;;;;;;;;;;;25.02;34.46;100694.53;5076769;28;19957;-67
2022/07/31 06:44:18;;;;;;;;;;;;;;;25.07;34.17;100696.44;5076779;28;20432;-67
2022/07/31 06:46:44;;;;;;;;;;;;;;;25.08;34.22;100696.19;5076384;28;19920;-67
2022/07/31 06:49:09;;;;;;;;;;;;;;;25.09;34.12;100697.00;5076486;28;19963;-67
2022/07/31 06:51:34;;;;;;;;;;;;;;;25.11;34.16;100689.31;5076576;28;19962;-66
2022/07/31 06:54:00;;;;;;;;;;;;;;;25.10;33.65;100704.09;5076591;28;20286;-66
2022/07/31 06:56:25;;;;;;;;;;;;;;;25.04;33.79;100697.84;5075617;28;20476;-66
2022/07/31 06:58:52;;;;;;;;;;;;;;;25.07;33.39;100690.97;5076185;28;19916;-66
2022/07/31 07:01:17;;;;;;;;;;;;;;;25.06;33.22;100697.53;5076179;28;20003;-66
2022/07/31 07:03:42;;;;;;;;;;;;;;;25.03;33.23;100695.38;5076459;28;19932;-66
2022/07/31 07:06:07;;;;;;;;;;;;;;;25.03;33.30;100695.38;5076353;28;19917;-68
2022/07/31 07:08:33;;;;;;;;;;;;;;;25.07;33.21;100690.97;5076312;28;19921;-67
2022/07/31 07:10:58;;;;;;;;;;;;;;;25.06;33.45;100686.59;5076322;28;20354;-67
2022/07/31 07:13:25;;;;;;;;;;;;;;;24.95;33.11;100677.63;5076326;28;19999;-67
2022/07/31 07:15:50;;;;;;;;;;;;;;;24.98;33.08;100679.00;5076398;28;19920;-67
2022/07/31 07:18:16;;;;;;;;;;;;;;;25.03;33.06;100689.91;5075893;28;20381;-67
2022/07/31 07:20:41;;;;;;;;;;;;;;;25.08;33.16;100685.25;5077080;28;19970;-67
2022/07/31 07:23:06;;;;;;;;;;;;;;;25.05;33.36;100679.50;5087230;28;19916;-67
2022/07/31 07:25:32;;;;;;;;;;;;;;;25.05;33.39;100676.78;5089631;28;19971;-66
2022/07/31 07:27:57;;;;;;;;;;;;;;;25.07;33.28;100677.31;5087205;28;19916;-66
2022/07/31 07:30:23;;;;;;;;;;;;;;;25.15;32.80;100674.00;5099616;28;19928;-66
2022/07/31 07:32:49;;;;;;;;;;;;;;;25.12;32.81;100666.34;5107900;28;19916;-67
2022/07/31 07:35:15;;;;;;;;;;;;;;;25.12;32.72;100664.44;5096279;28;20352;-67
2022/07/31 07:37:41;;;;;;;;;;;;;;;25.13;32.32;100673.47;5096371;28;20385;-67
2022/07/31 07:40:07;;;;;;;;;;;;;;;25.17;32.67;100665.53;5094600;28;19917;-67
2022/07/31 07:42:32;;;;;;;;;;;;;;;25.15;32.26;100671.28;5096215;28;19916;-67
2022/07/31 07:44:57;;;;;;;;;;;;;;;25.11;32.07;100665.56;5096446;28;20005;-67
2022/07/31 07:47:23;;;;;;;;;;;;;;;25.17;31.54;100671.81;5107352;28;19926;-65
2022/07/31 07:49:48;;;;;;;;;;;;;;;25.15;31.36;100670.44;5107397;28;19916;-66
2022/07/31 07:52:13;;;;;;;;;;;;;;;25.11;31.28;100665.56;5106357;28;19956;-66
2022/07/31 07:54:39;;;;;;;;;;;;;;;25.15;31.41;100654.88;5106767;28;19916;-66
2022/07/31 07:57:04;;;;;;;;;;;;;;;25.17;31.69;100663.59;5107147;28;20342;-66
2022/07/31 07:59:29;;;;;;;;;;;;;;;25.14;31.44;100657.88;5112426;28;19960;-66
2022/07/31 08:01:55;;;;;;;;;;;;;;;25.16;31.79;100658.41;5105277;28;20325;-66
2022/07/31 08:04:23;;;;;;;;;;;;;;;25.18;32.02;100654.31;5096077;28;19938;-66
2022/07/31 08:06:48;;;;;;;;;;;;;;;25.18;31.87;100658.94;5095821;28;19920;-66
2022/07/31 08:09:13;;;;;;;;;;;;;;;25.19;31.76;100655.13;5094696;28;20365;-66
2022/07/31 08:11:39;;;;;;;;;;;;;;;25.20;31.80;100645.81;5095136;28;20011;-66
2022/07/31 08:14:04;;;;;;;;;;;;;;;25.21;31.51;100658.41;5095031;28;19923;-66
2022/07/31 08:16:31;;;;;;;;;;;;;;;25.19;31.68;100650.47;5094920;28;20393;-66
2022/07/31 08:18:57;;;;;;;;;;;;;;;25.14;31.68;100658.69;5094936;28;19916;-66
2022/07/31 08:21:22;;;;;;;;;;;;;;;25.21;31.63;100653.75;5094825;28;19923;-66
2022/07/31 08:23:48;;;;;;;;;;;;;;;25.25;31.40;100662.19;5095181;28;19916;-66
2022/07/31 08:26:13;;;;;;;;;;;;;;;25.24;31.14;100657.84;5094630;28;19928;-66
2022/07/31 08:28:38;;;;;;;;;;;;;;;25.20;31.28;100663.06;5094984;28;19995;-67
2022/07/31 08:31:04;;;;;;;;;;;;;;;25.22;31.53;100660.84;5080345;28;19998;-67
2022/07/31 08:33:29;;;;;;;;;;;;;;;25.21;31.42;100652.94;5074419;28;19917;-67
2022/07/31 08:35:54;;;;;;;;;;;;;;;25.22;31.63;100660.84;5074224;28;19948;-67
2022/07/31 08:38:20;;;;;;;;;;;;;;;25.26;31.40;100669.34;5074583;28;19943;-67
2022/07/31 08:40:45;;;;;;;;;;;;;;;25.25;31.58;100665.81;5074520;28;19924;-67
2022/07/31 08:43:11;;;;;;;;;;;;;;;25.25;31.58;100657.59;5074548;28;19916;-67
2022/07/31 08:45:36;;;;;;;;;;;;;;;25.27;31.48;100655.41;5074196;28;19917;-67
2022/07/31 08:48:03;;;;;;;;;;;;;;;25.25;31.52;100654.88;5072838;28;19916;-67
2022/07/31 08:50:28;;;;;;;;;;;;;;;25.27;31.68;100658.13;5073231;28;19916;-67
2022/07/31 08:52:53;;;;;;;;;;;;;;;25.24;31.53;100658.66;5074363;28;20431;-67
2022/07/31 08:55:19;;;;;;;;;;;;;;;25.26;31.39;100651.00;5073005;28;19917;-67
2022/07/31 08:57:46;;;;;;;;;;;;;;;25.30;31.73;100657.59;5072856;28;19939;-67
2022/07/31 09:00:14;;;;;;;;;;;;;;;25.25;31.75;100649.41;5073862;28;20223;-67
2022/07/31 09:02:51;;;;;;;;;;;;;;;25.27;31.83;100647.19;5073833;28;20012;-67
2022/07/31 09:05:19;;;;;;;;;;;;;;;25.24;31.80;100650.44;5074218;28;19928;-67
2022/07/31 09:07:44;;;;;;;;;;;;;;;25.22;31.87;100649.91;5074144;28;19966;-66
2022/07/31 09:10:22;;;;;;;;;;;;;;;25.27;31.96;100652.66;5073717;28;19917;-66
2022/07/31 09:12:47;;;;;;;;;;;;;;;25.24;31.97;100655.91;5073739;28;19920;-66
2022/07/31 09:15:39;;;;;;;;;;;;;;;25.20;32.37;100652.13;5073686;28;19928;-68
2022/07/31 09:18:13;;;;;;;;;;;;;;;25.20;32.46;100652.13;5071756;28;20324;-68
2022/07/31 09:20:39;;;;;;;;;;;;;;;25.16;32.55;100645.56;5072288;28;19948;-67
2022/07/31 09:23:08;;;;;;;;;;;;;;;25.23;32.61;100645.25;5074026;28;19917;-67
2022/07/31 09:25:34;;;;;;;;;;;;;;;25.25;32.42;100652.13;5073704;28;19920;-67
2022/07/31 09:27:59;;;;;;;;;;;;;;;25.23;32.53;100650.72;5073952;28;20390;-67
2022/07/31 09:30:25;;;;;;;;;;;;;;;25.23;32.53;100650.72;5081928;28;19946;-67
2022/07/31 09:32:50;;;;;;;;;;;;;;;25.25;32.58;100660.34;5093698;28;19920;-67
2022/07/31 09:35:15;;;;;;;;;;;;;;;25.21;32.66;100653.75;5093549;28;19963;-67
2022/07/31 09:37:41;;;;;;;;;;;;;;;25.18;32.77;100651.59;5093770;28;19924;-67
2022/07/31 09:40:06;;;;;;;;;;;;;;;25.14;32.83;100653.22;5092659;28;19916;-67
2022/07/31 09:42:36;;;;;;;;;;;;;;;25.19;32.69;100650.47;5093752;28;19920;-67
2022/07/31 09:45:01;;;;;;;;;;;;;;;25.17;32.75;100649.94;5093665;28;19917;-67
2022/07/31 09:47:28;;;;;;;;;;;;;;;25.17;32.68;100649.94;5093930;28;19916;-67
2022/07/31 09:49:54;;;;;;;;;;;;;;;25.15;32.88;100646.66;5093936;28;19942;-67
2022/07/31 09:52:20;;;;;;;;;;;;;;;25.14;32.85;100650.50;5093786;28;19951;-67
2022/07/31 09:54:46;;;;;;;;;;;;;;;25.24;32.70;100653.19;5093839;28;20362;-67
2022/07/31 09:57:12;;;;;;;;;;;;;;;25.23;32.72;100646.09;5093498;28;19922;-67
2022/07/31 09:59:37;;;;;;;;;;;;;;;25.22;32.77;100649.91;5093801;28;20010;-67
2022/07/31 10:02:02;;;;;;;;;;;;;;;25.23;32.81;100654.31;5093525;28;20390;-66
2022/07/31 10:04:27;;;;;;;;;;;;;;;25.16;32.87;100651.03;5093824;28;19969;-66
2022/07/31 10:09:28;;;;;;;;;;;;;;;25.20;32.57;100649.38;6115636;22;19925;-79
2022/07/31 10:11:53;;;;;;;;;;;;;;;25.16;32.89;100648.28;4982988;23;19926;-80
2022/07/31 10:14:23;;;;;;;;;;;;;;;25.19;32.89;100646.94;4973758;28;19918;-80
2022/07/31 10:16:49;;;;;;;;;;;;;;;25.17;33.00;100644.47;4974631;28;19926;-79
2022/07/31 10:19:15;;;;;;;;;;;;;;;25.22;32.78;100643.63;4971199;28;19926;-79
2022/07/31 10:21:41;;;;;;;;;;;;;;;25.20;32.92;100635.72;4955186;28;19922;-80
2022/07/31 10:24:06;;;;;;;;;;;;;;;25.24;33.03;100636.78;4956210;28;20376;-83
2022/07/31 10:26:31;;;;;;;;;;;;;;;25.29;32.96;100634.06;4956079;28;19918;-79
2022/07/31 10:28:57;;;;;;;;;;;;;;;25.34;32.79;100640.63;4956502;28;19990;-78
2022/07/31 10:31:22;;;;;;;;;;;;;;;25.31;32.68;100633.78;4957489;28;20379;-81
2022/07/31 10:33:48;;;;;;;;;;;;;;;25.27;33.01;100630.78;4958491;28;19922;-80
2022/07/31 10:36:15;;;;;;;;;;;;;;;25.29;33.05;100628.56;4959454;28;19952;-82
2022/07/31 10:38:50;;;;;;;;;;;;;;;25.30;32.80;100622.03;4958229;28;19923;-80
2022/07/31 10:41:15;;;;;;;;;;;;;;;25.26;33.25;100625.59;4959193;28;19965;-83
2022/07/31 10:43:43;;;;;;;;;;;;;;;25.24;33.31;100625.03;4959312;28;19930;-82
2022/07/31 10:46:09;;;;;;;;;;;;;;;25.34;32.96;100625.00;4959907;28;19934;-79
2022/07/31 10:48:34;;;;;;;;;;;;;;;25.29;33.23;100628.56;4959340;28;19918;-80
2022/07/31 10:51:00;;;;;;;;;;;;;;;25.34;33.16;100632.41;4959178;28;19918;-79
2022/07/31 10:53:25;;;;;;;;;;;;;;;25.35;33.28;100634.84;4959581;28;19918;-81
2022/07/31 10:56:20;;;;;;;;;;;;;;;25.39;33.35;100638.66;4959306;28;20249;-80
2022/07/31 10:58:46;;;;;;;;;;;;;;;25.36;33.48;100633.75;4956661;28;20001;-79
2022/07/31 11:01:11;;;;;;;;;;;;;;;25.38;33.46;100636.22;4956906;29;20492;-80
2022/07/31 11:03:37;;;;;;;;;;;;;;;25.44;33.25;100638.66;4956950;29;19941;-80
2022/07/31 11:06:03;;;;;;;;;;;;;;;25.40;33.43;100642.22;4956884;29;19918;-82
2022/07/31 11:08:38;;;;;;;;;;;;;;;25.46;33.48;100643.84;4940401;28;20320;-82
2022/07/31 11:11:04;;;;;;;;;;;;;;;25.46;33.61;100644.66;4956464;29;19926;-82
2022/07/31 11:13:31;;;;;;;;;;;;;;;25.51;33.28;100640.25;4956551;29;20065;-80
2022/07/31 11:16:03;;;;;;;;;;;;;;;25.53;33.47;100638.88;4956416;29;19926;-80
2022/07/31 11:18:29;;;;;;;;;;;;;;;25.49;33.43;100633.16;4956389;29;19919;-81
2022/07/31 11:21:00;;;;;;;;;;;;;;;25.52;33.54;100629.00;4955997;28;19918;-80
2022/07/31 11:23:29;;;;;;;;;;;;;;;25.51;33.75;100630.13;4976039;28;19957;-79
2022/07/31 11:25:56;;;;;;;;;;;;;;;25.48;33.67;100623.28;4976037;28;20022;-80
2022/07/31 11:28:23;;;;;;;;;;;;;;;25.51;33.57;100618.34;4975843;28;19941;-78
2022/07/31 11:30:54;;;;;;;;;;;;;;;25.48;33.84;100611.53;4975541;28;20020;-80
2022/07/31 11:33:34;;;;;;;;;;;;;;;25.52;34.01;100609.84;4975788;28;19998;-79
2022/07/31 11:36:07;;;;;;;;;;;;;;;25.48;34.09;100615.06;4960789;28;19926;-79
2022/07/31 11:38:32;;;;;;;;;;;;;;;25.52;33.92;100604.38;4957197;28;20018;-78
2022/07/31 11:40:57;;;;;;;;;;;;;;;25.49;34.00;100597.56;4958419;28;19919;-80
2022/07/31 11:43:23;;;;;;;;;;;;;;;25.49;34.19;100600.31;4958071;28;20324;-80
2022/07/31 11:45:48;;;;;;;;;;;;;;;25.47;34.16;100585.25;4958000;28;19944;-81
2022/07/31 11:48:14;;;;;;;;;;;;;;;25.48;34.44;100598.66;4958402;28;19961;-80
2022/07/31 11:50:40;;;;;;;;;;;;;;;25.52;34.42;100592.63;4957997;28;19966;-79
2022/07/31 11:53:05;;;;;;;;;;;;;;;25.53;34.26;100594.28;4958170;28;19918;-79
2022/07/31 11:55:31;;;;;;;;;;;;;;;25.50;34.37;100590.19;4958170;28;19923;-79
2022/07/31 11:57:56;;;;;;;;;;;;;;;25.52;34.55;100587.97;4958294;28;19918;-79
2022/07/31 12:00:21;;;;;;;;;;;;;;;25.53;34.67;100588.81;4958051;28;19919;-79
2022/07/31 12:02:47;;;;;;;;;;;;;;;25.55;34.74;100592.88;4958014;28;19934;-80
2022/07/31 12:05:12;;;;;;;;;;;;;;;25.52;34.59;100587.97;4957900;28;19933;-82
2022/07/31 12:10:13;;;;;;;;;;;;;;;25.53;34.61;100588.81;5495814;23;19933;-84
2022/07/31 12:12:38;;;;;;;;;;;;;;;25.53;34.98;100578.66;5025050;28;19917;-84
2022/07/31 12:15:17;;;;;;;;;;;;;;;25.52;34.82;100566.06;5009103;28;19918;-84
2022/07/31 12:17:42;;;;;;;;;;;;;;;25.54;34.84;100569.34;5004413;28;20004;-84
2022/07/31 12:20:08;;;;;;;;;;;;;;;25.52;35.14;100568.81;5014352;28;19941;-85
2022/07/31 12:22:33;;;;;;;;;;;;;;;25.52;35.00;100566.06;5018258;28;19917;-84
2022/07/31 12:25:02;;;;;;;;;;;;;;;25.48;35.14;100570.50;5018237;28;19965;-84
2022/07/31 12:27:27;;;;;;;;;;;;;;;25.48;35.15;100573.22;5017698;28;19922;-84
2022/07/31 12:29:52;;;;;;;;;;;;;;;25.53;35.18;100573.19;5017970;28;20004;-84
2022/07/31 12:32:24;;;;;;;;;;;;;;;25.55;35.04;100581.13;5017515;28;19944;-82
2022/07/31 12:34:50;;;;;;;;;;;;;;;25.55;35.25;100573.72;5018750;28;19976;-82